Time;durP1;ratioP1;P1;durP2;ratioP2;P2;SDS_P1;SDS_P2;PMS_P1;PMS_P2;Temp;Humidity;BMP_temperature;BMP_pressure;BME280_temperature;BME280_humidity;BME280_pressure;Samples;Min_cycle;Max_cycle;Signal;HPM_P1;HPM_P2
2022/08/10 00:03:23;;;;;;;3.47;2.90;;;;;;;22.91;35.90;98765.00;8446030;28;20236;-73
2022/08/10 00:07:27;;;;;;;7.53;2.90;;;;;;;22.87;35.72;98762.75;8446687;28;20228;-74
2022/08/10 00:11:30;;;;;;;3.20;2.80;;;;;;;22.81;35.31;98761.47;8446897;28;20523;-73
2022/08/10 00:15:33;;;;;;;4.43;2.67;;;;;;;22.72;35.62;98763.03;8446773;28;20226;-74
2022/08/10 00:19:55;;;;;;;5.07;3.17;;;;;;;22.64;35.74;98755.75;8446212;28;20236;-74
2022/08/10 00:24:11;;;;;;;3.70;2.53;;;;;;;22.49;36.70;98754.34;8446460;28;20222;-73
2022/08/10 00:28:14;;;;;;;4.40;2.80;;;;;;;22.57;36.41;98751.94;8446665;28;20225;-73
2022/08/10 00:32:17;;;;;;;5.10;3.20;;;;;;;22.54;36.08;98752.19;8446261;28;20233;-74
2022/08/10 00:36:19;;;;;;;4.50;2.60;;;;;;;22.41;36.31;98743.59;8446411;28;20225;-73
2022/08/10 00:40:24;;;;;;;3.37;2.73;;;;;;;22.46;36.38;98741.41;8446204;28;20286;-74
2022/08/10 00:44:41;;;;;;;5.07;2.93;;;;;;;22.38;36.66;98749.09;8446311;28;20520;-74
2022/08/10 00:48:43;;;;;;;4.83;3.00;;;;;;;22.29;36.83;98750.69;8446252;28;20236;-74
2022/08/10 00:52:56;;;;;;;3.83;2.93;;;;;;;22.17;37.45;98749.00;8449417;28;20292;-73
2022/08/10 00:57:01;;;;;;;6.27;2.80;;;;;;;22.27;36.76;98751.78;8452498;28;20296;-74
2022/08/10 01:01:18;;;;;;;4.07;2.93;;;;;;;22.24;37.03;98755.47;8452123;28;20225;-73
2022/08/10 01:05:52;;;;;;;4.97;3.10;;;;;;;22.17;37.09;98749.84;8452170;28;20545;-73
2022/08/10 01:10:04;;;;;;;4.00;2.70;;;;;;;22.09;37.49;98746.16;8451037;28;20224;-73
2022/08/10 01:14:13;;;;;;;9.90;3.50;;;;;;;21.92;37.26;98745.66;8451338;28;20238;-74
2022/08/10 01:18:24;;;;;;;4.47;2.87;;;;;;;21.88;37.34;98746.88;8451119;28;20222;-74
2022/08/10 01:22:40;;;;;;;3.20;2.87;;;;;;;21.86;37.30;98740.88;8451518;28;20297;-74
2022/08/10 01:26:50;;;;;;;7.73;3.00;;;;;;;21.80;37.32;98742.22;8450959;28;20232;-73
2022/08/10 01:30:59;;;;;;;5.10;2.90;;;;;;;21.84;37.43;98737.53;8450240;28;20239;-73
2022/08/10 01:35:09;;;;;;;4.17;2.77;;;;;;;21.75;37.35;98740.88;8450652;28;20230;-73
2022/08/10 01:39:16;;;;;;;6.90;2.77;;;;;;;21.69;37.52;98744.84;8451006;28;20236;-73
2022/08/10 01:43:20;;;;;;;4.20;2.80;;;;;;;21.61;37.37;98748.06;8450788;28;20225;-73
2022/08/10 01:51:53;;;;;;;5.00;2.70;;;;;;;21.56;37.31;98742.31;8450164;28;20229;-73
2022/08/10 01:55:57;;;;;;;5.90;2.97;;;;;;;21.38;37.32;98739.28;8450387;28;20243;-73
2022/08/10 02:00:01;;;;;;;7.00;3.10;;;;;;;21.39;37.83;98735.66;8450295;28;20235;-74
2022/08/10 02:04:08;;;;;;;6.27;3.10;;;;;;;21.42;37.44;98739.88;8449318;28;20230;-73
2022/08/10 02:08:13;;;;;;;4.50;3.10;;;;;;;21.24;38.16;98739.47;8449965;28;20237;-73
2022/08/10 02:12:19;;;;;;;3.23;2.73;;;;;;;21.26;38.06;98741.03;8449883;28;20259;-73
2022/08/10 02:16:23;;;;;;;3.87;3.00;;;;;;;21.14;38.40;98738.50;8450046;28;20555;-74
2022/08/10 02:20:30;;;;;;;4.63;2.90;;;;;;;21.13;38.26;98744.72;8449573;28;20231;-73
2022/08/10 02:24:34;;;;;;;5.23;2.80;;;;;;;21.08;38.60;98748.53;8449408;28;20552;-74
2022/08/10 02:28:38;;;;;;;6.07;3.10;;;;;;;21.03;38.19;98741.94;8449484;28;20226;-74
2022/08/10 02:32:42;;;;;;;8.20;3.30;;;;;;;21.05;38.49;98740.03;8449205;28;20256;-74
2022/08/10 02:36:56;;;;;;;4.63;3.17;;;;;;;20.97;38.79;98739.78;8448786;28;20228;-73
2022/08/10 02:41:03;;;;;;;5.30;3.40;;;;;;;20.97;38.59;98742.41;8449093;28;20428;-74
2022/08/10 02:45:31;;;;;;;5.70;3.27;;;;;;;20.89;38.94;98740.34;8448947;28;20230;-73
2022/08/10 02:49:39;;;;;;;7.03;2.93;;;;;;;20.86;38.82;98740.56;8448869;28;20234;-74
2022/08/10 02:53:46;;;;;;;6.77;3.00;;;;;;;20.68;39.08;98740.16;8448656;28;20552;-74
2022/08/10 02:57:59;;;;;;;5.70;3.00;;;;;;;20.82;39.16;98747.84;8448310;28;20237;-73
2022/08/10 03:02:25;;;;;;;6.10;3.33;;;;;;;20.78;38.89;98749.03;8448462;28;20236;-74
2022/08/10 03:06:34;;;;;;;6.70;3.30;;;;;;;20.75;39.09;98746.63;8448408;28;20510;-74
2022/08/10 03:10:41;;;;;;;5.87;3.33;;;;;;;20.73;39.70;98739.78;8448013;28;20241;-74
2022/08/10 03:14:44;;;;;;;4.53;3.30;;;;;;;20.66;40.02;98748.16;8447323;28;20229;-74
2022/08/10 03:18:48;;;;;;;5.73;3.30;;;;;;;20.50;40.29;98751.03;8439098;28;20537;-73
2022/08/10 03:22:51;;;;;;;6.97;3.40;;;;;;;20.44;40.13;98754.09;8447766;28;20527;-73
2022/08/10 03:26:56;;;;;;;7.97;3.70;;;;;;;20.41;40.81;98754.34;8447656;28;20233;-73
2022/08/10 03:31:00;;;;;;;4.87;3.47;;;;;;;20.45;40.21;98752.31;8447498;28;20231;-73
2022/08/10 03:35:03;;;;;;;4.77;3.57;;;;;;;20.35;40.26;98752.13;8447439;28;20556;-73
2022/08/10 03:39:06;;;;;;;4.53;3.10;;;;;;;20.39;40.43;98761.50;8447395;28;20396;-74
2022/08/10 03:43:11;;;;;;;5.20;4.10;;;;;;;20.45;40.38;98754.97;8447314;28;20222;-74
2022/08/10 03:47:16;;;;;;;4.77;3.17;;;;;;;20.34;40.21;98763.63;8447424;28;20245;-74
2022/08/10 03:51:20;;;;;;;5.07;3.47;;;;;;;20.38;40.25;98758.97;8446941;28;20563;-73
2022/08/10 03:55:24;;;;;;;6.83;3.80;;;;;;;20.30;40.54;98765.63;8447156;28;20230;-74
2022/08/10 03:59:49;;;;;;;6.13;3.83;;;;;;;20.23;40.32;98767.00;8446235;28;20222;-74
2022/08/10 04:03:54;;;;;;;4.30;3.30;;;;;;;20.17;40.55;98767.44;8446799;28;20308;-73
2022/08/10 04:08:16;;;;;;;6.07;3.90;;;;;;;20.05;40.86;98769.16;8447044;28;20289;-74
2022/08/10 04:12:19;;;;;;;7.03;3.87;;;;;;;20.18;40.28;98774.41;8446807;28;20416;-74
2022/08/10 04:16:23;;;;;;;6.30;4.17;;;;;;;20.17;40.46;98775.34;8446839;28;20230;-74
2022/08/10 04:20:30;;;;;;;6.53;3.60;;;;;;;20.11;40.73;98778.41;8446440;28;20236;-73
2022/08/10 04:24:38;;;;;;;5.23;4.10;;;;;;;20.13;40.58;98779.13;8446522;28;20576;-73
2022/08/10 04:28:41;;;;;;;6.83;3.43;;;;;;;20.03;40.89;98781.56;8452115;28;20233;-73
2022/08/10 04:32:47;;;;;;;6.00;3.70;;;;;;;20.04;41.20;98780.59;8453128;28;20230;-73
2022/08/10 04:36:50;;;;;;;6.33;3.60;;;;;;;20.01;41.16;98772.97;8452757;28;20558;-73
2022/08/10 04:40:54;;;;;;;4.57;3.90;;;;;;;20.04;41.11;98770.09;8452922;28;20231;-73
2022/08/10 04:44:57;;;;;;;7.17;3.77;;;;;;;20.02;41.33;98782.50;8452916;28;20237;-73
2022/08/10 04:49:01;;;;;;;5.27;3.73;;;;;;;20.08;41.21;98775.97;8452878;28;20227;-73
2022/08/10 04:53:06;;;;;;;7.37;3.63;;;;;;;20.10;41.09;98779.34;8452432;28;20253;-73
2022/08/10 04:57:09;;;;;;;6.80;4.10;;;;;;;20.02;41.21;98779.88;8452601;28;20233;-73
2022/08/10 05:01:12;;;;;;;9.17;3.70;;;;;;;20.03;41.19;98780.72;8452369;28;20520;-73
2022/08/10 05:05:16;;;;;;;9.57;3.73;;;;;;;20.13;40.71;98786.19;8452156;28;20226;-74
2022/08/10 05:09:19;;;;;;;6.47;4.00;;;;;;;20.19;41.16;98786.59;8452111;28;20225;-73
2022/08/10 05:13:22;;;;;;;6.80;4.00;;;;;;;20.24;40.98;98781.84;8452055;28;20226;-74
2022/08/10 05:17:25;;;;;;;6.63;3.90;;;;;;;20.26;40.98;98793.09;8451817;28;20226;-74
2022/08/10 05:21:29;;;;;;;10.27;3.80;;;;;;;20.38;41.10;98793.16;8451603;28;20528;-74
2022/08/10 05:25:52;;;;;;;7.83;3.80;;;;;;;20.45;41.10;98790.00;8451079;28;20472;-74
2022/08/10 05:29:55;;;;;;;8.37;4.20;;;;;;;20.56;41.10;98793.63;8451530;28;20229;-74
2022/08/10 05:34:04;;;;;;;6.90;4.13;;;;;;;20.64;40.93;98789.53;8451411;28;20360;-73
2022/08/10 05:38:25;;;;;;;4.87;3.27;;;;;;;20.85;40.59;98791.56;8450244;28;20226;-73
2022/08/10 05:42:28;;;;;;;6.87;3.50;;;;;;;20.93;40.85;98796.25;8451408;28;20226;-74
2022/08/10 05:46:31;;;;;;;10.40;3.50;;;;;;;21.02;40.76;98788.50;8450936;28;20227;-74
2022/08/10 05:50:34;;;;;;;7.67;3.73;;;;;;;21.17;40.94;98783.88;8450759;28;20242;-74
2022/08/10 05:54:38;;;;;;;7.63;3.73;;;;;;;21.33;40.13;98794.09;8450882;28;20516;-74
2022/08/10 05:58:41;;;;;;;5.20;3.53;;;;;;;21.52;40.24;98792.75;8450499;28;20226;-74
2022/08/10 06:02:47;;;;;;;6.47;3.27;;;;;;;21.71;40.26;98798.28;8450512;28;20322;-73
2022/08/10 06:06:51;;;;;;;4.97;3.37;;;;;;;21.93;39.77;98789.53;8450035;28;20229;-72
2022/08/10 06:10:56;;;;;;;4.03;3.00;;;;;;;22.13;39.80;98789.78;8450350;28;20238;-73
2022/08/10 06:15:19;;;;;;;4.93;2.97;;;;;;;22.38;38.88;98794.78;8448630;28;20226;-73
2022/08/10 06:19:24;;;;;;;8.23;2.30;;;;;;;22.61;38.32;98786.84;8450085;28;20222;-73
2022/08/10 06:23:28;;;;;;;2.83;2.10;;;;;;;22.80;37.46;98788.81;8449868;28;20230;-73
2022/08/10 06:27:33;;;;;;;2.97;2.10;;;;;;;23.03;37.28;98794.88;8449779;28;20230;-73
2022/08/10 06:31:39;;;;;;;4.43;2.10;;;;;;;23.32;36.74;98786.31;8449434;28;20293;-73
2022/08/10 06:35:54;;;;;;;3.77;2.10;;;;;;;23.45;36.23;98794.06;8449108;28;20233;-73
2022/08/10 06:39:56;;;;;;;3.77;1.90;;;;;;;23.64;35.95;98793.34;8449125;28;20230;-73
2022/08/10 06:44:04;;;;;;;5.33;2.03;;;;;;;23.85;35.39;98806.56;8448893;28;20260;-73
2022/08/10 06:48:13;;;;;;;4.73;1.87;;;;;;;23.91;35.18;98803.38;8449237;28;20764;-73
2022/08/10 06:52:16;;;;;;;5.80;2.20;;;;;;;23.97;34.85;98794.91;8448404;28;20230;-73
2022/08/10 06:56:21;;;;;;;10.63;2.23;;;;;;;24.05;33.91;98802.19;8448840;28;20229;-73
2022/08/10 07:00:43;;;;;;;8.77;2.20;;;;;;;24.37;34.28;98796.75;8444060;28;20239;-73
2022/08/10 07:04:51;;;;;;;7.20;2.07;;;;;;;24.58;34.15;98796.66;8414537;28;20297;-72
2022/08/10 07:08:54;;;;;;;9.43;2.20;;;;;;;24.31;34.50;98789.31;8415063;28;20233;-73
2022/08/10 07:12:58;;;;;;;9.13;2.40;;;;;;;24.26;33.87;98786.25;8414731;28;20239;-73
2022/08/10 07:17:03;;;;;;;7.87;2.50;;;;;;;24.46;33.65;98787.97;8414486;28;20240;-73
2022/08/10 07:21:07;;;;;;;9.33;2.23;;;;;;;24.37;33.78;98784.34;8414507;28;20231;-73
2022/08/10 07:25:12;;;;;;;2.73;1.87;;;;;;;24.85;32.97;98781.94;8414271;28;20264;-73
2022/08/10 07:29:16;;;;;;;5.07;2.00;;;;;;;25.35;33.02;98779.94;8414284;28;20390;-73
2022/08/10 07:33:42;;;;;;;4.33;1.93;;;;;;;25.90;32.36;98776.56;8413897;28;20529;-73
2022/08/10 07:37:48;;;;;;;2.80;2.03;;;;;;;25.59;31.44;98775.16;8413793;28;20238;-72
2022/08/10 07:41:52;;;;;;;4.83;2.20;;;;;;;25.66;31.38;98779.72;8413446;28;20550;-73
2022/08/10 07:45:55;;;;;;;8.13;2.13;;;;;;;25.84;30.97;98781.66;8413514;28;20236;-73
2022/08/10 07:50:03;;;;;;;4.50;1.67;;;;;;;26.32;30.46;98784.09;8413988;28;20228;-73
2022/08/10 07:54:07;;;;;;;5.67;1.80;;;;;;;26.56;30.71;98781.84;8439880;28;20235;-73
2022/08/10 07:58:11;;;;;;;4.73;2.10;;;;;;;26.58;30.24;98785.19;8447165;28;20245;-71
2022/08/10 08:02:20;;;;;;;2.77;1.70;;;;;;;26.89;29.49;98775.91;8446776;28;20228;-71
2022/08/10 08:06:25;;;;;;;4.90;1.70;;;;;;;26.91;29.02;98776.56;8447328;28;20236;-73
2022/08/10 08:10:30;;;;;;;7.83;2.03;;;;;;;26.69;28.88;98783.19;8446838;28;20227;-73
2022/08/10 08:14:33;;;;;;;4.13;1.70;;;;;;;27.08;28.21;98776.72;8446668;28;20269;-73
2022/08/10 08:18:37;;;;;;;4.53;1.90;;;;;;;27.37;27.40;98770.31;8446935;28;20231;-73
2022/08/10 08:22:49;;;;;;;4.30;1.60;;;;;;;26.59;27.90;98784.22;8446456;28;20412;-72
2022/08/10 08:27:15;;;;;;;3.67;1.73;;;;;;;27.47;27.11;98779.88;8446728;28;20225;-73
2022/08/10 08:31:19;;;;;;;2.93;1.60;;;;;;;26.95;27.31;98782.44;8446621;28;20245;-73
2022/08/10 08:35:22;;;;;;;7.43;1.77;;;;;;;26.81;27.76;98785.63;8446216;28;20230;-73
2022/08/10 08:39:26;;;;;;;3.80;1.80;;;;;;;27.15;27.34;98787.56;8446568;28;20226;-74
2022/08/10 08:43:47;;;;;;;3.83;1.90;;;;;;;27.59;27.10;98785.75;8446148;28;20229;-73
2022/08/10 08:48:09;;;;;;;4.50;2.10;;;;;;;27.33;27.11;98780.44;8429423;28;20523;-71
2022/08/10 08:52:28;;;;;;;8.20;2.00;;;;;;;27.32;26.47;98781.41;8440820;28;20228;-72
2022/08/10 08:56:36;;;;;;;8.67;2.10;;;;;;;28.04;25.83;98781.19;8412425;28;20618;-73
2022/08/10 09:00:43;;;;;;;5.20;2.00;;;;;;;28.30;25.76;98780.31;8412734;28;20242;-73
2022/08/10 09:05:05;;;;;;;4.30;2.00;;;;;;;28.26;25.34;98791.28;8412672;28;20238;-72
2022/08/10 09:09:44;;;;;;;7.70;2.00;;;;;;;28.84;24.80;98773.63;8403390;28;20219;-72
2022/08/10 09:13:52;;;;;;;6.10;1.90;;;;;;;28.36;24.65;98782.31;8406474;28;20415;-73
2022/08/10 09:18:07;;;;;;;6.20;2.03;;;;;;;28.83;24.11;98763.94;8417754;28;20419;-73
2022/08/10 09:22:17;;;;;;;5.07;1.80;;;;;;;29.62;23.62;98766.94;8418495;28;20234;-73
2022/08/10 09:26:23;;;;;;;4.38;1.90;;;;;;;29.73;22.69;98764.91;8417286;28;20622;-73
2022/08/10 09:30:31;;;;;;;3.10;1.70;;;;;;;28.89;23.02;98751.78;8425091;28;20403;-73
2022/08/10 09:34:50;;;;;;;4.27;2.00;;;;;;;29.34;22.38;98758.47;8451746;28;20434;-73
2022/08/10 09:39:19;;;;;;;5.53;2.20;;;;;;;29.02;23.26;98752.13;8434318;28;20253;-73
2022/08/10 09:43:47;;;;;;;3.07;1.90;;;;;;;28.74;24.15;98761.44;8433350;28;20246;-73
2022/08/10 09:48:06;;;;;;;4.97;1.90;;;;;;;28.57;23.70;98765.91;8450224;28;20229;-72
2022/08/10 09:52:15;;;;;;;6.63;2.10;;;;;;;28.69;22.85;98753.09;8450835;28;20228;-72
2022/08/10 09:56:28;;;;;;;4.97;2.00;;;;;;;30.23;21.45;98744.19;8449197;28;20394;-72
2022/08/10 10:00:37;;;;;;;4.75;1.70;;;;;;;29.00;21.62;98759.47;8449698;28;20477;-73
2022/08/10 10:04:48;;;;;;;8.10;1.90;;;;;;;28.92;21.65;98742.63;8438824;28;20227;-73
2022/08/10 10:08:58;;;;;;;5.83;2.40;;;;;;;29.92;19.63;98742.34;8416458;28;20230;-72
2022/08/10 10:13:18;;;;;;;7.07;2.13;;;;;;;29.90;19.46;98737.16;8414904;28;20411;-72
2022/08/10 10:17:49;;;;;;;5.20;1.77;;;;;;;30.06;19.20;98743.44;8416367;28;20546;-73
2022/08/10 10:22:02;;;;;;;3.00;1.97;;;;;;;30.14;18.65;98732.69;8415904;28;20267;-72
2022/08/10 10:26:12;;;;;;;10.93;2.20;;;;;;;29.35;19.37;98724.63;8415510;28;20239;-73
2022/08/10 10:30:23;;;;;;;5.97;2.10;;;;;;;29.07;19.17;98716.13;8416006;28;20231;-73
2022/08/10 10:34:33;;;;;;;4.23;1.90;;;;;;;29.17;19.42;98709.66;8441167;28;20237;-73
2022/08/10 10:38:40;;;;;;;5.87;1.93;;;;;;;28.30;20.95;98722.53;8449272;28;20225;-73
2022/08/10 10:42:49;;;;;;;7.50;2.30;;;;;;;28.21;21.46;98718.19;8449415;28;20434;-73
2022/08/10 10:46:57;;;;;;;4.37;2.20;;;;;;;28.26;22.63;98708.72;8448554;28;20500;-72
2022/08/10 10:51:04;;;;;;;4.67;1.80;;;;;;;28.61;22.59;98708.63;8449228;28;20248;-72
2022/08/10 10:55:17;;;;;;;3.43;2.10;;;;;;;28.55;22.56;98710.13;8448902;28;20335;-72
2022/08/10 10:59:27;;;;;;;5.47;2.30;;;;;;;28.57;22.40;98705.47;8448872;28;20232;-72
2022/08/10 11:04:02;;;;;;;5.83;2.23;;;;;;;29.46;20.84;98694.91;8448153;28;20419;-72
2022/08/10 11:08:09;;;;;;;5.93;2.13;;;;;;;29.26;22.35;98689.13;8448527;28;20238;-74
2022/08/10 11:12:23;;;;;;;3.47;2.03;;;;;;;28.84;22.13;98698.13;8448146;28;20228;-72
2022/08/10 11:16:36;;;;;;;5.10;2.20;;;;;;;28.81;21.90;98693.16;8448157;28;20350;-71
2022/08/10 11:20:42;;;;;;;7.53;2.20;;;;;;;28.82;21.34;98676.97;8447660;28;20406;-72
2022/08/10 11:24:54;;;;;;;5.18;2.13;;;;;;;29.27;20.55;98684.63;8447747;28;20736;-71
2022/08/10 11:29:16;;;;;;;6.07;2.40;;;;;;;28.69;20.80;98674.00;8447577;28;20236;-71
2022/08/10 11:33:23;;;;;;;4.37;2.43;;;;;;;30.08;20.21;98682.66;8447928;28;20535;-71
2022/08/10 11:37:38;;;;;;;5.07;1.83;;;;;;;29.99;19.72;98687.22;8447011;28;20255;-72
2022/08/10 11:42:06;;;;;;;5.80;1.90;;;;;;;30.45;18.16;98679.28;8446724;28;20422;-72
2022/08/10 11:46:30;;;;;;;3.43;1.80;;;;;;;30.08;18.66;98671.97;8447517;28;20233;-71
2022/08/10 11:50:37;;;;;;;2.70;1.70;;;;;;;30.51;18.56;98669.72;8447650;28;20234;-71
2022/08/10 11:54:42;;;;;;;7.40;1.93;;;;;;;30.86;17.48;98659.41;8447105;28;20232;-71
2022/08/10 12:03:21;;;;;;;5.33;1.70;;;;;;;30.00;18.16;98663.00;8446967;28;20238;-72
2022/08/10 12:07:25;;;;;;;5.20;1.73;;;;;;;31.28;18.33;98647.31;8434324;28;20226;-72
2022/08/10 12:11:49;;;;;;;2.80;1.60;;;;;;;31.04;17.32;98643.88;8428719;28;20224;-71
2022/08/10 12:15:57;;;;;;;3.03;1.83;;;;;;;30.21;18.54;98650.88;8428605;28;20229;-71
2022/08/10 12:20:10;;;;;;;4.43;1.90;;;;;;;30.88;18.14;98646.69;8430313;28;20234;-71
2022/08/10 12:24:20;;;;;;;4.77;1.80;;;;;;;30.74;17.63;98648.31;8429108;28;20237;-72
2022/08/10 12:28:27;;;;;;;2.20;1.40;;;;;;;31.44;16.78;98633.75;8428871;28;20259;-73
2022/08/10 12:32:57;;;;;;;5.07;1.63;;;;;;;31.30;16.61;98626.53;8430164;28;20222;-72
2022/08/10 12:37:20;;;;;;;5.80;1.73;;;;;;;30.93;17.05;98639.00;8428680;28;20423;-72
2022/08/10 12:41:24;;;;;;;4.47;1.60;;;;;;;30.80;16.88;98628.88;8446495;28;20403;-72
2022/08/10 12:45:55;;;;;;;1.87;1.60;;;;;;;31.61;16.49;98625.56;8446367;28;20247;-72
2022/08/10 12:50:08;;;;;;;4.80;1.70;;;;;;;32.15;15.70;98619.78;8451757;28;20429;-72
2022/08/10 12:54:34;;;;;;;3.93;1.57;;;;;;;31.92;16.71;98617.25;8452466;28;20235;-72
2022/08/10 12:58:40;;;;;;;2.47;1.53;;;;;;;31.69;15.91;98620.09;8444199;28;20235;-72
2022/08/10 13:03:03;;;;;;;6.43;1.60;;;;;;;31.91;16.05;98623.63;8418354;28;20265;-72
2022/08/10 13:07:07;;;;;;;3.90;1.60;;;;;;;31.13;16.55;98620.53;8417546;28;20412;-72
2022/08/10 13:11:12;;;;;;;3.13;1.60;;;;;;;31.16;16.55;98609.50;8418554;28;20230;-72
2022/08/10 13:15:36;;;;;;;4.07;1.50;;;;;;;30.64;16.73;98596.97;8417953;28;20231;-72
2022/08/10 13:19:54;;;;;;;3.37;1.63;;;;;;;30.70;16.80;98602.41;8401274;28;20312;-72
2022/08/10 13:24:08;;;;;;;5.33;1.93;;;;;;;31.52;16.75;98600.72;8417957;28;20538;-72
2022/08/10 13:28:15;;;;;;;2.87;1.80;;;;;;;31.45;16.51;98587.22;8417907;28;20227;-72
2022/08/10 13:32:39;;;;;;;2.67;1.57;;;;;;;32.06;16.44;98575.38;8417332;28;20410;-73
2022/08/10 13:36:43;;;;;;;3.43;1.70;;;;;;;31.41;16.64;98596.63;8417383;28;20231;-72
2022/08/10 13:40:47;;;;;;;4.93;1.60;;;;;;;30.80;17.45;98591.44;8417161;28;20225;-72
2022/08/10 13:44:53;;;;;;;3.73;1.60;;;;;;;31.80;17.20;98574.06;8409627;28;20252;-72
2022/08/10 13:48:58;;;;;;;4.27;1.70;;;;;;;31.30;16.90;98573.03;8417272;28;20242;-72
2022/08/10 13:53:01;;;;;;;3.87;1.67;;;;;;;31.01;16.75;98573.88;8434389;28;20243;-72
2022/08/10 13:57:05;;;;;;;2.40;1.53;;;;;;;31.40;16.82;98570.06;8450515;28;20231;-72
2022/08/10 14:01:11;;;;;;;4.73;1.73;;;;;;;31.42;17.49;98576.09;8449339;28;20303;-72
2022/08/10 14:05:16;;;;;;;5.00;1.43;;;;;;;31.35;16.46;98565.28;8450220;28;20236;-72
2022/08/10 14:09:25;;;;;;;4.27;1.80;;;;;;;31.12;16.51;98554.72;8449427;28;20234;-73
2022/08/10 14:13:28;;;;;;;7.30;1.63;;;;;;;31.75;16.90;98550.53;8449752;28;20246;-72
2022/08/10 14:17:32;;;;;;;4.03;1.73;;;;;;;31.49;15.87;98544.88;8449678;28;20227;-72
2022/08/10 14:21:55;;;;;;;4.23;1.53;;;;;;;32.08;17.47;98534.00;8449270;28;20228;-72
2022/08/10 14:26:00;;;;;;;6.87;1.80;;;;;;;31.29;16.69;98539.28;8449068;28;20251;-72
2022/08/10 14:30:14;;;;;;;3.23;1.80;;;;;;;31.29;16.75;98537.44;8449428;28;20227;-72
2022/08/10 14:34:19;;;;;;;3.40;1.60;;;;;;;30.97;17.23;98530.63;8447978;28;20406;-72
2022/08/10 14:38:43;;;;;;;2.70;1.50;;;;;;;31.44;16.79;98534.72;8448205;28;20414;-72
2022/08/10 14:42:50;;;;;;;2.87;1.70;;;;;;;31.41;17.09;98523.56;8449224;28;20222;-72
2022/08/10 14:46:57;;;;;;;3.77;1.70;;;;;;;31.09;17.26;98531.84;8448497;28;20232;-73
2022/08/10 14:51:03;;;;;;;3.97;1.77;;;;;;;31.08;16.79;98524.81;8448909;28;20420;-73
2022/08/10 14:55:12;;;;;;;7.43;1.70;;;;;;;31.05;17.45;98527.84;8448863;28;20228;-70
2022/08/10 14:59:27;;;;;;;5.87;1.60;;;;;;;31.31;17.27;98522.03;8448112;28;20329;-70
2022/08/10 15:03:53;;;;;;;7.47;1.70;;;;;;;31.23;17.61;98481.19;8437709;28;20230;-70
2022/08/10 15:08:06;;;;;;;3.80;1.80;;;;;;;31.29;17.13;98517.88;8413368;28;20247;-71
2022/08/10 15:12:10;;;;;;;6.60;1.97;;;;;;;31.35;17.66;98511.78;8413820;28;20564;-72
2022/08/10 15:16:28;;;;;;;2.67;1.73;;;;;;;30.32;17.50;98513.44;8414186;28;20234;-71
2022/08/10 15:20:32;;;;;;;2.73;1.73;;;;;;;30.35;17.44;98507.72;8414288;28;20232;-71
2022/08/10 15:29:01;;;;;;;5.83;1.80;;;;;;;30.75;17.39;98511.81;8413937;28;20245;-71
2022/08/10 15:38:06;;;;;;;3.17;1.87;;;;;;;30.99;17.64;98496.53;8437009;28;20223;-71
2022/08/10 15:42:18;;;;;;;2.90;1.83;;;;;;;30.72;17.75;98489.97;8413995;28;20239;-71
2022/08/10 15:46:23;;;;;;;5.07;1.70;;;;;;;30.73;17.80;98489.78;8413450;28;20584;-72
2022/08/10 15:50:35;;;;;;;3.95;1.75;;;;;;;30.63;17.76;98488.38;8413103;28;20437;-71
2022/08/10 15:54:46;;;;;;;4.70;1.73;;;;;;;30.20;17.73;98487.13;8445001;28;20472;-72
2022/08/10 15:59:04;;;;;;;3.33;1.60;;;;;;;30.07;18.50;98492.25;8446756;28;20231;-72
2022/08/10 16:03:14;;;;;;;3.40;1.70;;;;;;;29.98;18.71;98486.13;8447341;28;20227;-71
2022/08/10 16:07:21;;;;;;;5.27;1.93;;;;;;;29.86;18.83;98478.75;8447473;28;20504;-69
2022/08/10 16:11:46;;;;;;;3.77;1.80;;;;;;;29.71;18.85;98482.16;8440265;28;20230;-73
2022/08/10 16:15:57;;;;;;;5.43;2.20;;;;;;;29.61;19.25;98485.06;8412770;28;20230;-71
2022/08/10 16:20:00;;;;;;;7.60;1.70;;;;;;;29.68;19.36;98481.66;8413032;28;20546;-71
2022/08/10 16:24:06;;;;;;;7.80;2.03;;;;;;;29.39;19.65;98476.00;8417612;28;20443;-72
2022/08/10 16:28:18;;;;;;;3.30;1.90;;;;;;;29.25;20.08;98474.13;8420747;28;20259;-72
2022/08/10 16:32:28;;;;;;;4.47;1.73;;;;;;;29.42;19.56;98478.34;8418501;28;20411;-72
2022/08/10 16:36:37;;;;;;;5.23;1.97;;;;;;;28.93;19.83;98483.06;8420258;28;20254;-72
2022/08/10 16:40:42;;;;;;;1.93;1.60;;;;;;;29.07;20.06;98484.16;8402323;28;20520;-72
2022/08/10 16:44:51;;;;;;;2.73;1.70;;;;;;;29.37;19.88;98474.53;8420741;28;20296;-70
2022/08/10 16:48:58;;;;;;;5.63;2.03;;;;;;;29.34;19.60;98475.72;8419700;28;20237;-72
2022/08/10 16:53:02;;;;;;;4.50;2.10;;;;;;;29.08;19.87;98478.66;8436255;28;20413;-71
2022/08/10 16:57:06;;;;;;;5.55;1.80;;;;;;;29.51;19.54;98471.13;8450862;28;20422;-71
2022/08/10 17:01:12;;;;;;;5.60;2.13;;;;;;;28.96;20.28;98472.91;8452614;28;20554;-73
2022/08/10 17:05:19;;;;;;;5.60;1.93;;;;;;;28.65;20.65;98470.16;8452459;28;20361;-72
2022/08/10 17:09:51;;;;;;;5.80;1.90;;;;;;;28.95;20.97;98460.56;8450118;28;20515;-72
2022/08/10 17:13:55;;;;;;;7.27;2.00;;;;;;;28.23;21.80;98473.88;8427156;28;20238;-72
2022/08/10 17:18:00;;;;;;;6.13;1.70;;;;;;;28.20;21.70;98472.41;8418238;28;20241;-72
2022/08/10 17:22:09;;;;;;;3.83;2.00;;;;;;;27.76;22.13;98475.38;8418287;28;20537;-72
2022/08/10 17:26:17;;;;;;;5.27;1.90;;;;;;;28.13;21.85;98468.75;8418012;28;20241;-71
2022/08/10 17:30:40;;;;;;;5.37;2.00;;;;;;;28.13;21.70;98467.91;8418118;28;20224;-72
2022/08/10 17:35:02;;;;;;;10.33;2.20;;;;;;;27.65;21.47;98471.22;8424906;28;20520;-70
2022/08/10 17:39:09;;;;;;;2.97;1.90;;;;;;;27.80;21.18;98474.06;8451503;28;20234;-74
2022/08/10 17:43:12;;;;;;;3.40;2.10;;;;;;;27.88;21.31;98470.56;8451123;28;20246;-73
2022/08/10 17:47:35;;;;;;;2.83;2.13;;;;;;;27.80;21.30;98471.38;8450659;28;20327;-73
2022/08/10 17:51:41;;;;;;;3.40;1.60;;;;;;;27.65;21.19;98476.53;8450742;28;20522;-73
2022/08/10 17:55:47;;;;;;;4.20;1.93;;;;;;;27.50;21.51;98476.34;8442344;28;20242;-72
2022/08/10 17:59:52;;;;;;;5.57;1.80;;;;;;;27.60;21.57;98473.53;8450172;28;20225;-74
2022/08/10 18:03:56;;;;;;;5.00;2.00;;;;;;;27.52;21.81;98470.84;8450494;28;20231;-75
2022/08/10 18:08:01;;;;;;;6.60;2.20;;;;;;;27.41;22.20;98481.81;8449675;28;20234;-74
2022/08/10 18:12:11;;;;;;;4.30;2.00;;;;;;;27.44;22.15;98484.16;8450764;28;20234;-75
2022/08/10 18:16:24;;;;;;;3.90;2.20;;;;;;;27.27;22.54;98484.09;8448498;28;20230;-73
2022/08/10 18:20:33;;;;;;;3.23;2.10;;;;;;;27.22;22.59;98494.34;8449908;28;20230;-73
2022/08/10 18:24:37;;;;;;;5.20;2.20;;;;;;;27.06;22.80;98483.69;8449821;28;20228;-74
2022/08/10 18:28:42;;;;;;;8.35;2.35;;;;;;;27.54;22.55;98495.47;8448503;28;20426;-79
2022/08/10 18:32:49;;;;;;;3.83;1.92;;;;;;;27.27;22.59;98500.06;8449280;28;20402;-73
2022/08/10 18:36:53;;;;;;;5.87;2.20;;;;;;;27.48;22.47;98496.94;8447155;28;20494;-72
2022/08/10 18:40:59;;;;;;;3.47;2.00;;;;;;;27.11;23.08;98494.63;8449381;28;20525;-72
2022/08/10 18:45:09;;;;;;;6.60;2.30;;;;;;;27.11;22.99;98495.50;8447760;28;20426;-72
2022/08/10 18:49:16;;;;;;;3.07;1.90;;;;;;;27.15;23.56;98506.63;8448622;28;20223;-73
2022/08/10 18:53:24;;;;;;;9.00;1.93;;;;;;;27.08;23.55;98503.78;8448774;28;20236;-72
2022/08/10 18:57:34;;;;;;;4.90;2.13;;;;;;;26.90;23.86;98508.34;8448994;28;20521;-73
2022/08/10 19:02:04;;;;;;;5.67;2.00;;;;;;;26.74;24.00;98514.41;8447415;28;20239;-74
2022/08/10 19:06:19;;;;;;;9.43;2.53;;;;;;;26.77;24.01;98524.72;8446802;28;20539;-74
2022/08/10 19:10:34;;;;;;;5.50;2.20;;;;;;;26.77;24.22;98529.19;8448490;28;20231;-73
2022/08/10 19:14:39;;;;;;;6.27;2.10;;;;;;;26.57;24.39;98536.53;8447805;28;20260;-73
2022/08/10 19:19:05;;;;;;;7.13;2.30;;;;;;;26.65;24.13;98534.75;8447719;28;20422;-73
2022/08/10 19:23:51;;;;;;;11.57;2.77;;;;;;;26.55;24.47;98527.88;8447676;28;20512;-74
2022/08/10 19:28:06;;;;;;;5.27;2.43;;;;;;;26.53;24.50;98528.03;8447407;28;20225;-73
2022/08/10 19:32:17;;;;;;;6.17;2.70;;;;;;;26.47;24.50;98531.31;8447951;28;20552;-73
2022/08/10 19:36:29;;;;;;;6.33;2.60;;;;;;;26.43;24.77;98530.78;8447516;28;20255;-73
2022/08/10 19:40:37;;;;;;;4.53;2.10;;;;;;;26.50;25.24;98533.66;8447653;28;20249;-73
2022/08/10 19:44:55;;;;;;;5.90;2.10;;;;;;;26.45;25.08;98535.94;8446853;28;20592;-72
2022/08/10 19:49:03;;;;;;;6.63;1.90;;;;;;;26.50;25.09;98531.00;8447420;28;20234;-70
2022/08/10 19:53:11;;;;;;;4.63;2.20;;;;;;;26.44;25.08;98528.97;8446981;28;20229;-70
2022/08/10 19:57:21;;;;;;;3.83;2.20;;;;;;;26.40;25.47;98531.09;8446466;28;20231;-73